sensor_id;sensor_type;location;lat;lon;timestamp;P1;P2;P0
24012;PMS7003;12220;50.194;18.948;2023-07-22T00:00:39;7;7;6
24012;PMS7003;12220;50.194;18.948;2023-07-22T00:02:45;9;9;7
24012;PMS7003;12220;50.194;18.948;2023-07-22T00:04:51;9;8;8
24012;PMS7003;12220;50.194;18.948;2023-07-22T00:06:53;8;7;6
24012;PMS7003;12220;50.194;18.948;2023-07-22T00:08:54;10;10;8
24012;PMS7003;12220;50.194;18.948;2023-07-22T00:10:55;7;7;7
24012;PMS7003;12220;50.194;18.948;2023-07-22T00:13:06;6;6;6
24012;PMS7003;12220;50.194;18.948;2023-07-22T00:15:08;10;9;8
24012;PMS7003;12220;50.194;18.948;2023-07-22T00:17:12;10;7;6
24012;PMS7003;12220;50.194;18.948;2023-07-22T00:19:14;10;7;6
24012;PMS7003;12220;50.194;18.948;2023-07-22T00:21:20;6;6;5
24012;PMS7003;12220;50.194;18.948;2023-07-22T00:23:22;8;8;7
24012;PMS7003;12220;50.194;18.948;2023-07-22T00:25:24;6;6;5
24012;PMS7003;12220;50.194;18.948;2023-07-22T00:27:26;8;8;7
24012;PMS7003;12220;50.194;18.948;2023-07-22T00:29:35;8;8;5
24012;PMS7003;12220;50.194;18.948;2023-07-22T00:31:37;6;6;5
24012;PMS7003;12220;50.194;18.948;2023-07-22T00:33:38;7;7;7
24012;PMS7003;12220;50.194;18.948;2023-07-22T00:35:39;8;8;8
24012;PMS7003;12220;50.194;18.948;2023-07-22T00:37:50;7;6;5
24012;PMS7003;12220;50.194;18.948;2023-07-22T00:39:51;5;5;4
24012;PMS7003;12220;50.194;18.948;2023-07-22T00:41:53;9;9;6
24012;PMS7003;12220;50.194;18.948;2023-07-22T00:43:55;10;10;8
24012;PMS7003;12220;50.194;18.948;2023-07-22T00:46:05;5;5;4
24012;PMS7003;12220;50.194;18.948;2023-07-22T00:48:06;11;7;6
24012;PMS7003;12220;50.194;18.948;2023-07-22T00:50:10;7;7;6
24012;PMS7003;12220;50.194;18.948;2023-07-22T00:52:11;6;6;5
24012;PMS7003;12220;50.194;18.948;2023-07-22T00:54:20;5;5;4
24012;PMS7003;12220;50.194;18.948;2023-07-22T00:56:21;9;7;6
24012;PMS7003;12220;50.194;18.948;2023-07-22T00:58:23;6;6;5
24012;PMS7003;12220;50.194;18.948;2023-07-22T01:00:25;12;9;7
24012;PMS7003;12220;50.194;18.948;2023-07-22T01:02:35;10;10;7
24012;PMS7003;12220;50.194;18.948;2023-07-22T01:04:36;7;7;6
24012;PMS7003;12220;50.194;18.948;2023-07-22T01:06:41;6;6;6
24012;PMS7003;12220;50.194;18.948;2023-07-22T01:08:45;7;7;6
24012;PMS7003;12220;50.194;18.948;2023-07-22T01:10:50;7;6;5
24012;PMS7003;12220;50.194;18.948;2023-07-22T01:12:51;8;8;7
24012;PMS7003;12220;50.194;18.948;2023-07-22T01:14:52;6;6;5
24012;PMS7003;12220;50.194;18.948;2023-07-22T01:16:54;6;6;5
24012;PMS7003;12220;50.194;18.948;2023-07-22T01:19:04;7;7;6
24012;PMS7003;12220;50.194;18.948;2023-07-22T01:21:06;12;8;7
24012;PMS7003;12220;50.194;18.948;2023-07-22T01:23:10;5;5;5
24012;PMS7003;12220;50.194;18.948;2023-07-22T01:25:12;8;7;6
24012;PMS7003;12220;50.194;18.948;2023-07-22T01:27:19;6;6;6
24012;PMS7003;12220;50.194;18.948;2023-07-22T01:31:28;9;9;8
24012;PMS7003;12220;50.194;18.948;2023-07-22T01:33:32;10;7;7
24012;PMS7003;12220;50.194;18.948;2023-07-22T01:35:34;7;7;6
24012;PMS7003;12220;50.194;18.948;2023-07-22T01:37:35;8;8;6
24012;PMS7003;12220;50.194;18.948;2023-07-22T01:39:37;11;7;7
24012;PMS7003;12220;50.194;18.948;2023-07-22T01:41:38;6;6;5
24012;PMS7003;12220;50.194;18.948;2023-07-22T01:43:49;11;7;6
24012;PMS7003;12220;50.194;18.948;2023-07-22T01:45:50;8;6;6
24012;PMS7003;12220;50.194;18.948;2023-07-22T01:47:53;13;13;10
24012;PMS7003;12220;50.194;18.948;2023-07-22T01:49:55;9;9;7
24012;PMS7003;12220;50.194;18.948;2023-07-22T01:52:04;6;6;6
24012;PMS7003;12220;50.194;18.948;2023-07-22T01:54:06;12;8;6
24012;PMS7003;12220;50.194;18.948;2023-07-22T01:56:09;6;6;5
24012;PMS7003;12220;50.194;18.948;2023-07-22T01:58:13;6;6;5
24012;PMS7003;12220;50.194;18.948;2023-07-22T02:00:19;5;5;5
24012;PMS7003;12220;50.194;18.948;2023-07-22T02:02:21;7;7;6
24012;PMS7003;12220;50.194;18.948;2023-07-22T02:04:23;5;5;4
24012;PMS7003;12220;50.194;18.948;2023-07-22T02:06:24;8;8;7
24012;PMS7003;12220;50.194;18.948;2023-07-22T02:08:33;8;8;7
24012;PMS7003;12220;50.194;18.948;2023-07-22T02:10:37;7;7;5
24012;PMS7003;12220;50.194;18.948;2023-07-22T02:12:38;5;5;4
24012;PMS7003;12220;50.194;18.948;2023-07-22T02:14:39;7;5;5
24012;PMS7003;12220;50.194;18.948;2023-07-22T02:16:48;10;8;8
24012;PMS7003;12220;50.194;18.948;2023-07-22T02:18:50;5;5;4
24012;PMS7003;12220;50.194;18.948;2023-07-22T02:20:52;8;8;5
24012;PMS7003;12220;50.194;18.948;2023-07-22T02:22:53;7;7;6
24012;PMS7003;12220;50.194;18.948;2023-07-22T02:25:03;6;6;5
24012;PMS7003;12220;50.194;18.948;2023-07-22T02:27:06;8;6;5
24012;PMS7003;12220;50.194;18.948;2023-07-22T02:29:09;9;8;7
24012;PMS7003;12220;50.194;18.948;2023-07-22T02:31:13;7;7;6
24012;PMS7003;12220;50.194;18.948;2023-07-22T02:33:18;6;6;5
24012;PMS7003;12220;50.194;18.948;2023-07-22T02:35:22;6;5;5
24012;PMS7003;12220;50.194;18.948;2023-07-22T02:37:23;8;7;5
24012;PMS7003;12220;50.194;18.948;2023-07-22T02:39:25;8;4;3
24012;PMS7003;12220;50.194;18.948;2023-07-22T02:41:33;7;6;5
24012;PMS7003;12220;50.194;18.948;2023-07-22T02:43:34;6;6;4
24012;PMS7003;12220;50.194;18.948;2023-07-22T02:45:36;7;7;5
24012;PMS7003;12220;50.194;18.948;2023-07-22T02:47:42;6;6;6
24012;PMS7003;12220;50.194;18.948;2023-07-22T02:49:48;6;6;6
24012;PMS7003;12220;50.194;18.948;2023-07-22T02:51:50;6;6;5
24012;PMS7003;12220;50.194;18.948;2023-07-22T02:53:51;6;6;5
24012;PMS7003;12220;50.194;18.948;2023-07-22T02:55:52;6;6;4
24012;PMS7003;12220;50.194;18.948;2023-07-22T02:58:03;6;6;5
24012;PMS7003;12220;50.194;18.948;2023-07-22T03:00:05;11;11;9
24012;PMS7003;12220;50.194;18.948;2023-07-22T03:02:08;8;8;7
24012;PMS7003;12220;50.194;18.948;2023-07-22T03:04:14;11;11;9
24012;PMS7003;12220;50.194;18.948;2023-07-22T03:06:17;13;12;9
24012;PMS7003;12220;50.194;18.948;2023-07-22T03:08:19;10;10;8
24012;PMS7003;12220;50.194;18.948;2023-07-22T03:10:20;10;10;7
24012;PMS7003;12220;50.194;18.948;2023-07-22T03:12:22;11;11;8
24012;PMS7003;12220;50.194;18.948;2023-07-22T03:14:32;12;12;9
24012;PMS7003;12220;50.194;18.948;2023-07-22T03:16:37;15;15;11
24012;PMS7003;12220;50.194;18.948;2023-07-22T03:18:39;9;9;6
24012;PMS7003;12220;50.194;18.948;2023-07-22T03:20:40;20;20;13
24012;PMS7003;12220;50.194;18.948;2023-07-22T03:22:47;11;11;9
24012;PMS7003;12220;50.194;18.948;2023-07-22T03:24:49;20;20;16
24012;PMS7003;12220;50.194;18.948;2023-07-22T03:26:50;25;20;15
24012;PMS7003;12220;50.194;18.948;2023-07-22T03:28:51;12;12;10
24012;PMS7003;12220;50.194;18.948;2023-07-22T03:31:02;22;22;16
24012;PMS7003;12220;50.194;18.948;2023-07-22T03:33:04;25;22;15
24012;PMS7003;12220;50.194;18.948;2023-07-22T03:35:06;26;23;17
24012;PMS7003;12220;50.194;18.948;2023-07-22T03:37:11;24;24;19
24012;PMS7003;12220;50.194;18.948;2023-07-22T03:39:17;23;20;14
24012;PMS7003;12220;50.194;18.948;2023-07-22T03:41:19;17;17;11
24012;PMS7003;12220;50.194;18.948;2023-07-22T03:43:20;22;22;15
24012;PMS7003;12220;50.194;18.948;2023-07-22T03:45:24;30;26;18
24012;PMS7003;12220;50.194;18.948;2023-07-22T03:47:32;26;23;16
24012;PMS7003;12220;50.194;18.948;2023-07-22T03:49:33;21;21;17
24012;PMS7003;12220;50.194;18.948;2023-07-22T03:51:34;22;21;16
24012;PMS7003;12220;50.194;18.948;2023-07-22T03:53:36;19;18;12
24012;PMS7003;12220;50.194;18.948;2023-07-22T03:55:47;20;13;10
24012;PMS7003;12220;50.194;18.948;2023-07-22T03:57:51;18;17;12
24012;PMS7003;12220;50.194;18.948;2023-07-22T03:59:55;21;21;15
24012;PMS7003;12220;50.194;18.948;2023-07-22T04:01:57;18;18;12
24012;PMS7003;12220;50.194;18.948;2023-07-22T04:04:02;19;17;12
24012;PMS7003;12220;50.194;18.948;2023-07-22T04:06:03;13;13;11
24012;PMS7003;12220;50.194;18.948;2023-07-22T04:08:04;19;19;14
24012;PMS7003;12220;50.194;18.948;2023-07-22T04:10:06;23;23;17
24012;PMS7003;12220;50.194;18.948;2023-07-22T04:12:16;17;17;12
24012;PMS7003;12220;50.194;18.948;2023-07-22T04:14:18;17;16;12
24012;PMS7003;12220;50.194;18.948;2023-07-22T04:16:19;16;16;12
24012;PMS7003;12220;50.194;18.948;2023-07-22T04:18:21;20;20;15
24012;PMS7003;12220;50.194;18.948;2023-07-22T04:20:31;27;21;14
24012;PMS7003;12220;50.194;18.948;2023-07-22T04:22:33;24;22;14
24012;PMS7003;12220;50.194;18.948;2023-07-22T04:24:34;17;16;13
24012;PMS7003;12220;50.194;18.948;2023-07-22T04:26:35;16;16;13
24012;PMS7003;12220;50.194;18.948;2023-07-22T04:28:46;19;18;13
24012;PMS7003;12220;50.194;18.948;2023-07-22T04:30:54;21;19;13
24012;PMS7003;12220;50.194;18.948;2023-07-22T04:32:58;14;14;10
24012;PMS7003;12220;50.194;18.948;2023-07-22T04:35:00;20;18;12
24012;PMS7003;12220;50.194;18.948;2023-07-22T04:37:03;20;18;12
24012;PMS7003;12220;50.194;18.948;2023-07-22T04:39:05;16;16;13
24012;PMS7003;12220;50.194;18.948;2023-07-22T04:41:07;13;13;11
24012;PMS7003;12220;50.194;18.948;2023-07-22T04:43:08;18;18;13
24012;PMS7003;12220;50.194;18.948;2023-07-22T04:45:18;14;14;11
24012;PMS7003;12220;50.194;18.948;2023-07-22T04:47:19;17;16;13
24012;PMS7003;12220;50.194;18.948;2023-07-22T04:49:21;18;16;12
24012;PMS7003;12220;50.194;18.948;2023-07-22T04:51:23;17;16;13
24012;PMS7003;12220;50.194;18.948;2023-07-22T04:53:33;14;14;11
24012;PMS7003;12220;50.194;18.948;2023-07-22T04:55:34;14;14;11
24012;PMS7003;12220;50.194;18.948;2023-07-22T04:57:40;16;13;11
24012;PMS7003;12220;50.194;18.948;2023-07-22T04:59:44;19;18;13
24012;PMS7003;12220;50.194;18.948;2023-07-22T05:01:48;17;16;12
24012;PMS7003;12220;50.194;18.948;2023-07-22T05:03:49;19;17;14
24012;PMS7003;12220;50.194;18.948;2023-07-22T05:05:50;11;11;9
24012;PMS7003;12220;50.194;18.948;2023-07-22T05:07:52;17;17;14
24012;PMS7003;12220;50.194;18.948;2023-07-22T05:10:03;16;16;15
24012;PMS7003;12220;50.194;18.948;2023-07-22T05:12:05;21;21;17
24012;PMS7003;12220;50.194;18.948;2023-07-22T05:14:06;15;15;13
24012;PMS7003;12220;50.194;18.948;2023-07-22T05:16:08;18;17;13
24012;PMS7003;12220;50.194;18.948;2023-07-22T05:18:17;17;17;13
24012;PMS7003;12220;50.194;18.948;2023-07-22T05:20:19;10;10;10
24012;PMS7003;12220;50.194;18.948;2023-07-22T05:22:20;18;16;12
24012;PMS7003;12220;50.194;18.948;2023-07-22T05:24:22;15;15;12
24012;PMS7003;12220;50.194;18.948;2023-07-22T05:26:32;15;14;11
24012;PMS7003;12220;50.194;18.948;2023-07-22T05:28:34;19;18;14
24012;PMS7003;12220;50.194;18.948;2023-07-22T05:30:35;16;16;12
24012;PMS7003;12220;50.194;18.948;2023-07-22T05:32:37;12;12;10
24012;PMS7003;12220;50.194;18.948;2023-07-22T05:34:47;12;12;10
24012;PMS7003;12220;50.194;18.948;2023-07-22T05:36:48;13;13;9
24012;PMS7003;12220;50.194;18.948;2023-07-22T05:38:50;13;9;7
24012;PMS7003;12220;50.194;18.948;2023-07-22T05:40:52;9;7;6
24012;PMS7003;12220;50.194;18.948;2023-07-22T05:43:02;9;9;7
24012;PMS7003;12220;50.194;18.948;2023-07-22T05:45:04;12;12;10
24012;PMS7003;12220;50.194;18.948;2023-07-22T05:47:06;8;8;7
24012;PMS7003;12220;50.194;18.948;2023-07-22T05:49:07;11;11;10
24012;PMS7003;12220;50.194;18.948;2023-07-22T05:51:17;11;8;8
24012;PMS7003;12220;50.194;18.948;2023-07-22T05:53:19;12;12;10
24012;PMS7003;12220;50.194;18.948;2023-07-22T05:55:20;13;13;12
24012;PMS7003;12220;50.194;18.948;2023-07-22T05:57:24;16;14;11
24012;PMS7003;12220;50.194;18.948;2023-07-22T05:59:32;10;10;8
24012;PMS7003;12220;50.194;18.948;2023-07-22T06:01:36;9;8;7
24012;PMS7003;12220;50.194;18.948;2023-07-22T06:03:39;11;10;8
24012;PMS7003;12220;50.194;18.948;2023-07-22T06:05:40;15;15;11
24012;PMS7003;12220;50.194;18.948;2023-07-22T06:07:47;10;10;8
24012;PMS7003;12220;50.194;18.948;2023-07-22T06:09:48;9;9;8
24012;PMS7003;12220;50.194;18.948;2023-07-22T06:11:50;9;9;7
24012;PMS7003;12220;50.194;18.948;2023-07-22T06:13:51;12;11;9
24012;PMS7003;12220;50.194;18.948;2023-07-22T06:16:02;9;8;8
24012;PMS7003;12220;50.194;18.948;2023-07-22T06:18:03;9;9;8
24012;PMS7003;12220;50.194;18.948;2023-07-22T06:20:09;12;12;9
24012;PMS7003;12220;50.194;18.948;2023-07-22T06:22:11;11;11;8
24012;PMS7003;12220;50.194;18.948;2023-07-22T06:24:16;10;10;10
24012;PMS7003;12220;50.194;18.948;2023-07-22T06:26:18;8;6;5
24012;PMS7003;12220;50.194;18.948;2023-07-22T06:28:19;12;12;10
24012;PMS7003;12220;50.194;18.948;2023-07-22T06:30:21;9;8;6
24012;PMS7003;12220;50.194;18.948;2023-07-22T06:32:31;11;11;9
24012;PMS7003;12220;50.194;18.948;2023-07-22T06:34:33;13;13;10
24012;PMS7003;12220;50.194;18.948;2023-07-22T06:36:34;12;12;10
24012;PMS7003;12220;50.194;18.948;2023-07-22T06:38:35;10;10;8
24012;PMS7003;12220;50.194;18.948;2023-07-22T06:40:46;9;9;8
24012;PMS7003;12220;50.194;18.948;2023-07-22T06:42:47;12;12;10
24012;PMS7003;12220;50.194;18.948;2023-07-22T06:44:49;12;12;11
24012;PMS7003;12220;50.194;18.948;2023-07-22T06:46:53;7;7;7
24012;PMS7003;12220;50.194;18.948;2023-07-22T06:49:01;9;9;8
24012;PMS7003;12220;50.194;18.948;2023-07-22T06:51:06;8;8;6
24012;PMS7003;12220;50.194;18.948;2023-07-22T06:53:12;9;7;5
24012;PMS7003;12220;50.194;18.948;2023-07-22T06:55:15;6;6;6
24012;PMS7003;12220;50.194;18.948;2023-07-22T06:57:17;6;6;5
24012;PMS7003;12220;50.194;18.948;2023-07-22T06:59:19;9;9;8
24012;PMS7003;12220;50.194;18.948;2023-07-22T07:01:20;7;7;6
24012;PMS7003;12220;50.194;18.948;2023-07-22T07:03:22;8;8;7
24012;PMS7003;12220;50.194;18.948;2023-07-22T07:05:32;9;8;7
24012;PMS7003;12220;50.194;18.948;2023-07-22T07:07:34;8;8;6
24012;PMS7003;12220;50.194;18.948;2023-07-22T07:09:36;8;8;7
24012;PMS7003;12220;50.194;18.948;2023-07-22T07:11:37;8;8;7
24012;PMS7003;12220;50.194;18.948;2023-07-22T07:13:46;6;6;5
24012;PMS7003;12220;50.194;18.948;2023-07-22T07:15:48;8;7;6
24012;PMS7003;12220;50.194;18.948;2023-07-22T07:17:49;6;6;4
24012;PMS7003;12220;50.194;18.948;2023-07-22T07:19:51;8;8;8
24012;PMS7003;12220;50.194;18.948;2023-07-22T07:22:01;6;6;6
24012;PMS7003;12220;50.194;18.948;2023-07-22T07:24:03;7;7;7
24012;PMS7003;12220;50.194;18.948;2023-07-22T07:26:04;10;9;7
24012;PMS7003;12220;50.194;18.948;2023-07-22T07:28:06;7;7;6
24012;PMS7003;12220;50.194;18.948;2023-07-22T07:30:16;6;6;6
24012;PMS7003;12220;50.194;18.948;2023-07-22T07:32:18;5;5;5
24012;PMS7003;12220;50.194;18.948;2023-07-22T07:34:19;6;6;6
24012;PMS7003;12220;50.194;18.948;2023-07-22T07:36:21;4;4;3
24012;PMS7003;12220;50.194;18.948;2023-07-22T07:38:31;6;6;5
24012;PMS7003;12220;50.194;18.948;2023-07-22T07:40:32;6;6;6
24012;PMS7003;12220;50.194;18.948;2023-07-22T07:42:34;9;8;7
24012;PMS7003;12220;50.194;18.948;2023-07-22T07:44:35;9;7;6
24012;PMS7003;12220;50.194;18.948;2023-07-22T07:46:46;5;5;5
24012;PMS7003;12220;50.194;18.948;2023-07-22T07:48:48;5;5;5
24012;PMS7003;12220;50.194;18.948;2023-07-22T07:50:51;7;7;6
24012;PMS7003;12220;50.194;18.948;2023-07-22T07:52:52;6;6;5
24012;PMS7003;12220;50.194;18.948;2023-07-22T07:55:01;7;7;6
24012;PMS7003;12220;50.194;18.948;2023-07-22T07:57:02;10;8;7
24012;PMS7003;12220;50.194;18.948;2023-07-22T07:59:04;13;10;8
24012;PMS7003;12220;50.194;18.948;2023-07-22T08:01:09;8;8;7
24012;PMS7003;12220;50.194;18.948;2023-07-22T08:03:15;5;5;5
24012;PMS7003;12220;50.194;18.948;2023-07-22T08:05:18;5;5;5
24012;PMS7003;12220;50.194;18.948;2023-07-22T08:07:19;6;6;5
24012;PMS7003;12220;50.194;18.948;2023-07-22T08:09:20;7;7;6
24012;PMS7003;12220;50.194;18.948;2023-07-22T08:11:30;6;6;5
24012;PMS7003;12220;50.194;18.948;2023-07-22T08:13:32;4;4;4
24012;PMS7003;12220;50.194;18.948;2023-07-22T08:15:35;6;6;5
24012;PMS7003;12220;50.194;18.948;2023-07-22T08:17:37;5;5;5
24012;PMS7003;12220;50.194;18.948;2023-07-22T08:19:45;4;4;4
24012;PMS7003;12220;50.194;18.948;2023-07-22T08:21:46;5;5;4
24012;PMS7003;12220;50.194;18.948;2023-07-22T08:23:48;4;4;4
24012;PMS7003;12220;50.194;18.948;2023-07-22T08:25:49;9;7;6
24012;PMS7003;12220;50.194;18.948;2023-07-22T08:28:00;4;4;4
24012;PMS7003;12220;50.194;18.948;2023-07-22T08:30:04;7;6;6
24012;PMS7003;12220;50.194;18.948;2023-07-22T08:32:06;5;5;4
24012;PMS7003;12220;50.194;18.948;2023-07-22T08:34:08;4;3;3
24012;PMS7003;12220;50.194;18.948;2023-07-22T08:36:15;5;5;4
24012;PMS7003;12220;50.194;18.948;2023-07-22T08:38:16;4;4;4
24012;PMS7003;12220;50.194;18.948;2023-07-22T08:40:17;4;4;3
24012;PMS7003;12220;50.194;18.948;2023-07-22T08:42:19;6;6;5
24012;PMS7003;12220;50.194;18.948;2023-07-22T08:44:31;5;5;5
24012;PMS7003;12220;50.194;18.948;2023-07-22T08:46:37;5;5;5
24012;PMS7003;12220;50.194;18.948;2023-07-22T08:48:42;5;5;5
24012;PMS7003;12220;50.194;18.948;2023-07-22T08:50:49;5;5;3
24012;PMS7003;12220;50.194;18.948;2023-07-22T08:52:58;5;5;5
24012;PMS7003;12220;50.194;18.948;2023-07-22T08:55:07;4;3;2
24012;PMS7003;12220;50.194;18.948;2023-07-22T08:57:11;5;5;4
24012;PMS7003;12220;50.194;18.948;2023-07-22T08:59:13;6;6;6
24012;PMS7003;12220;50.194;18.948;2023-07-22T09:01:15;4;4;4
24012;PMS7003;12220;50.194;18.948;2023-07-22T09:03:22;5;5;5
24012;PMS7003;12220;50.194;18.948;2023-07-22T09:05:25;6;5;5
24012;PMS7003;12220;50.194;18.948;2023-07-22T09:07:27;3;3;3
24012;PMS7003;12220;50.194;18.948;2023-07-22T09:09:29;3;3;3
24012;PMS7003;12220;50.194;18.948;2023-07-22T09:11:37;4;4;3
24012;PMS7003;12220;50.194;18.948;2023-07-22T09:13:38;4;4;4
24012;PMS7003;12220;50.194;18.948;2023-07-22T09:15:43;6;5;4
24012;PMS7003;12220;50.194;18.948;2023-07-22T09:17:44;3;3;3
24012;PMS7003;12220;50.194;18.948;2023-07-22T09:19:52;5;5;5
24012;PMS7003;12220;50.194;18.948;2023-07-22T09:21:54;6;6;5
24012;PMS7003;12220;50.194;18.948;2023-07-22T09:23:55;4;4;4
24012;PMS7003;12220;50.194;18.948;2023-07-22T09:26:07;4;4;4
24012;PMS7003;12220;50.194;18.948;2023-07-22T09:28:09;8;8;7
24012;PMS7003;12220;50.194;18.948;2023-07-22T09:34:37;5;5;5
24012;PMS7003;12220;50.194;18.948;2023-07-22T09:41:11;6;6;5
24012;PMS7003;12220;50.194;18.948;2023-07-22T09:43:14;5;5;5
24012;PMS7003;12220;50.194;18.948;2023-07-22T09:45:16;4;4;4
24012;PMS7003;12220;50.194;18.948;2023-07-22T09:47:18;6;6;5
24012;PMS7003;12220;50.194;18.948;2023-07-22T09:49:26;3;3;3
24012;PMS7003;12220;50.194;18.948;2023-07-22T09:51:32;5;5;5
24012;PMS7003;12220;50.194;18.948;2023-07-22T09:53:34;5;5;4
24012;PMS7003;12220;50.194;18.948;2023-07-22T09:55:36;7;7;6
24012;PMS7003;12220;50.194;18.948;2023-07-22T09:57:43;6;6;5
24012;PMS7003;12220;50.194;18.948;2023-07-22T09:59:48;5;5;4
24012;PMS7003;12220;50.194;18.948;2023-07-22T10:01:52;8;8;7
24012;PMS7003;12220;50.194;18.948;2023-07-22T10:03:54;13;5;5
24012;PMS7003;12220;50.194;18.948;2023-07-22T10:05:58;7;6;6
24012;PMS7003;12220;50.194;18.948;2023-07-22T10:08:02;6;6;6
24012;PMS7003;12220;50.194;18.948;2023-07-22T10:10:06;8;6;5
24012;PMS7003;12220;50.194;18.948;2023-07-22T10:12:11;7;7;6
24012;PMS7003;12220;50.194;18.948;2023-07-22T10:14:15;3;3;3
24012;PMS7003;12220;50.194;18.948;2023-07-22T10:16:19;7;7;6
24012;PMS7003;12220;50.194;18.948;2023-07-22T10:18:20;6;6;5
24012;PMS7003;12220;50.194;18.948;2023-07-22T10:20:24;7;7;6
24012;PMS7003;12220;50.194;18.948;2023-07-22T10:22:26;4;4;4
24012;PMS7003;12220;50.194;18.948;2023-07-22T10:24:30;3;3;3
24012;PMS7003;12220;50.194;18.948;2023-07-22T10:26:35;4;4;4
24012;PMS7003;12220;50.194;18.948;2023-07-22T10:28:37;5;5;5
24012;PMS7003;12220;50.194;18.948;2023-07-22T10:30:41;5;5;4
24012;PMS7003;12220;50.194;18.948;2023-07-22T10:32:45;5;5;5
24012;PMS7003;12220;50.194;18.948;2023-07-22T10:34:49;6;6;5
24012;PMS7003;12220;50.194;18.948;2023-07-22T10:36:50;5;5;4
24012;PMS7003;12220;50.194;18.948;2023-07-22T10:38:56;4;4;4
24012;PMS7003;12220;50.194;18.948;2023-07-22T10:40:59;4;4;4
24012;PMS7003;12220;50.194;18.948;2023-07-22T10:43:04;5;5;5
24012;PMS7003;12220;50.194;18.948;2023-07-22T10:45:22;6;6;3
24012;PMS7003;12220;50.194;18.948;2023-07-22T10:51:56;3;3;3
24012;PMS7003;12220;50.194;18.948;2023-07-22T10:53:58;4;4;4
24012;PMS7003;12220;50.194;18.948;2023-07-22T10:58:15;3;3;3
24012;PMS7003;12220;50.194;18.948;2023-07-22T11:00:20;5;5;4
24012;PMS7003;12220;50.194;18.948;2023-07-22T11:02:30;4;4;4
24012;PMS7003;12220;50.194;18.948;2023-07-22T11:04:32;6;6;5
24012;PMS7003;12220;50.194;18.948;2023-07-22T11:06:37;7;3;2
24012;PMS7003;12220;50.194;18.948;2023-07-22T11:08:40;4;4;4
24012;PMS7003;12220;50.194;18.948;2023-07-22T11:13:06;4;4;4
24012;PMS7003;12220;50.194;18.948;2023-07-22T11:15:08;4;4;4
24012;PMS7003;12220;50.194;18.948;2023-07-22T11:17:09;3;3;3
24012;PMS7003;12220;50.194;18.948;2023-07-22T11:19:18;3;3;3
24012;PMS7003;12220;50.194;18.948;2023-07-22T11:21:21;1;1;1
24012;PMS7003;12220;50.194;18.948;2023-07-22T11:23:22;5;4;4
24012;PMS7003;12220;50.194;18.948;2023-07-22T11:25:23;3;3;3
24012;PMS7003;12220;50.194;18.948;2023-07-22T11:27:27;2;2;2
24012;PMS7003;12220;50.194;18.948;2023-07-22T11:29:35;4;4;4
24012;PMS7003;12220;50.194;18.948;2023-07-22T11:31:40;1;1;1
24012;PMS7003;12220;50.194;18.948;2023-07-22T11:33:46;2;2;2
24012;PMS7003;12220;50.194;18.948;2023-07-22T11:35:48;3;3;3
24012;PMS7003;12220;50.194;18.948;2023-07-22T11:37:59;3;3;3
24012;PMS7003;12220;50.194;18.948;2023-07-22T11:40:12;2;2;2
24012;PMS7003;12220;50.194;18.948;2023-07-22T11:42:16;2;2;2
24012;PMS7003;12220;50.194;18.948;2023-07-22T11:44:21;3;3;2
24012;PMS7003;12220;50.194;18.948;2023-07-22T11:46:27;3;3;3
24012;PMS7003;12220;50.194;18.948;2023-07-22T11:48:29;4;4;4
24012;PMS7003;12220;50.194;18.948;2023-07-22T11:50:32;2;2;2
24012;PMS7003;12220;50.194;18.948;2023-07-22T11:52:37;3;3;3
24012;PMS7003;12220;50.194;18.948;2023-07-22T11:54:39;3;3;2
24012;PMS7003;12220;50.194;18.948;2023-07-22T11:56:42;2;2;2
24012;PMS7003;12220;50.194;18.948;2023-07-22T11:58:43;3;3;2
24012;PMS7003;12220;50.194;18.948;2023-07-22T12:01:01;4;4;3
24012;PMS7003;12220;50.194;18.948;2023-07-22T12:03:05;7;7;6
24012;PMS7003;12220;50.194;18.948;2023-07-22T12:05:07;5;4;4
24012;PMS7003;12220;50.194;18.948;2023-07-22T12:07:22;5;5;5
24012;PMS7003;12220;50.194;18.948;2023-07-22T12:09:28;4;4;3
24012;PMS7003;12220;50.194;18.948;2023-07-22T12:11:32;6;6;5
24012;PMS7003;12220;50.194;18.948;2023-07-22T12:13:37;5;5;5
24012;PMS7003;12220;50.194;18.948;2023-07-22T12:15:39;5;5;5
24012;PMS7003;12220;50.194;18.948;2023-07-22T12:19:56;4;4;3
24012;PMS7003;12220;50.194;18.948;2023-07-22T12:21:57;4;2;2
24012;PMS7003;12220;50.194;18.948;2023-07-22T12:24:01;3;3;2
24012;PMS7003;12220;50.194;18.948;2023-07-22T12:26:05;4;4;4
24012;PMS7003;12220;50.194;18.948;2023-07-22T12:28:08;3;3;3
24012;PMS7003;12220;50.194;18.948;2023-07-22T12:30:15;2;2;2
24012;PMS7003;12220;50.194;18.948;2023-07-22T12:32:18;2;2;2
24012;PMS7003;12220;50.194;18.948;2023-07-22T12:34:19;1;1;1
24012;PMS7003;12220;50.194;18.948;2023-07-22T12:36:21;2;2;2
24012;PMS7003;12220;50.194;18.948;2023-07-22T12:38:22;4;4;4
24012;PMS7003;12220;50.194;18.948;2023-07-22T12:40:30;3;3;2
24012;PMS7003;12220;50.194;18.948;2023-07-22T12:42:32;2;2;2
24012;PMS7003;12220;50.194;18.948;2023-07-22T12:44:33;3;3;2
24012;PMS7003;12220;50.194;18.948;2023-07-22T12:46:34;4;4;3
24012;PMS7003;12220;50.194;18.948;2023-07-22T12:48:45;5;5;2
24012;PMS7003;12220;50.194;18.948;2023-07-22T12:50:46;4;4;3
24012;PMS7003;12220;50.194;18.948;2023-07-22T12:52:54;4;4;4
24012;PMS7003;12220;50.194;18.948;2023-07-22T12:54:55;6;6;5
24012;PMS7003;12220;50.194;18.948;2023-07-22T12:57:00;4;4;4
24012;PMS7003;12220;50.194;18.948;2023-07-22T12:59:02;5;5;4
24012;PMS7003;12220;50.194;18.948;2023-07-22T13:01:03;3;3;3
24012;PMS7003;12220;50.194;18.948;2023-07-22T13:03:04;6;5;4
24012;PMS7003;12220;50.194;18.948;2023-07-22T13:05:15;3;3;3
24012;PMS7003;12220;50.194;18.948;2023-07-22T13:07:16;7;6;6
24012;PMS7003;12220;50.194;18.948;2023-07-22T13:09:18;8;6;5
24012;PMS7003;12220;50.194;18.948;2023-07-22T13:11:20;4;4;3
24012;PMS7003;12220;50.194;18.948;2023-07-22T13:13:29;8;6;5
24012;PMS7003;12220;50.194;18.948;2023-07-22T13:15:33;6;5;4
24012;PMS7003;12220;50.194;18.948;2023-07-22T13:17:35;4;4;4
24012;PMS7003;12220;50.194;18.948;2023-07-22T13:19:37;4;4;3
24012;PMS7003;12220;50.194;18.948;2023-07-22T13:21:44;5;5;4
24012;PMS7003;12220;50.194;18.948;2023-07-22T13:23:45;3;3;3
24012;PMS7003;12220;50.194;18.948;2023-07-22T13:25:47;2;2;2
24012;PMS7003;12220;50.194;18.948;2023-07-22T13:27:48;2;2;1
24012;PMS7003;12220;50.194;18.948;2023-07-22T13:29:59;6;6;5
24012;PMS7003;12220;50.194;18.948;2023-07-22T13:32:00;5;5;5
24012;PMS7003;12220;50.194;18.948;2023-07-22T13:34:02;4;4;3
24012;PMS7003;12220;50.194;18.948;2023-07-22T13:36:07;5;5;5
24012;PMS7003;12220;50.194;18.948;2023-07-22T13:38:14;5;5;4
24012;PMS7003;12220;50.194;18.948;2023-07-22T13:40:15;4;4;4
24012;PMS7003;12220;50.194;18.948;2023-07-22T13:42:17;4;4;4
24012;PMS7003;12220;50.194;18.948;2023-07-22T13:44:19;6;4;3
24012;PMS7003;12220;50.194;18.948;2023-07-22T13:46:28;8;5;4
24012;PMS7003;12220;50.194;18.948;2023-07-22T13:48:30;4;4;4
24012;PMS7003;12220;50.194;18.948;2023-07-22T13:50:31;3;3;3
24012;PMS7003;12220;50.194;18.948;2023-07-22T13:52:33;5;5;4
24012;PMS7003;12220;50.194;18.948;2023-07-22T13:54:44;5;5;4